sensor_id;sensor_type;location;lat;lon;timestamp;temperature;humidity
20319;DHT22;10317;47.254;11.314;2023-08-30T00:00:36;12.80;99.90
20319;DHT22;10317;47.254;11.314;2023-08-30T00:03:02;12.80;99.90
20319;DHT22;10317;47.254;11.314;2023-08-30T00:05:27;12.80;99.90
20319;DHT22;10317;47.254;11.314;2023-08-30T00:07:53;12.80;99.90
20319;DHT22;10317;47.254;11.314;2023-08-30T00:10:19;12.80;99.90
20319;DHT22;10317;47.254;11.314;2023-08-30T00:12:45;12.80;99.90
20319;DHT22;10317;47.254;11.314;2023-08-30T00:15:10;12.80;99.90
20319;DHT22;10317;47.254;11.314;2023-08-30T00:17:36;12.80;99.90
20319;DHT22;10317;47.254;11.314;2023-08-30T00:20:02;12.80;99.90
20319;DHT22;10317;47.254;11.314;2023-08-30T00:22:28;12.70;99.90
20319;DHT22;10317;47.254;11.314;2023-08-30T00:24:54;12.70;99.90
20319;DHT22;10317;47.254;11.314;2023-08-30T00:27:20;12.80;99.90
20319;DHT22;10317;47.254;11.314;2023-08-30T00:29:48;12.80;99.90
20319;DHT22;10317;47.254;11.314;2023-08-30T00:32:14;12.70;99.90
20319;DHT22;10317;47.254;11.314;2023-08-30T00:34:39;12.80;99.90
20319;DHT22;10317;47.254;11.314;2023-08-30T00:37:05;12.80;99.90
20319;DHT22;10317;47.254;11.314;2023-08-30T00:39:30;12.70;99.90
20319;DHT22;10317;47.254;11.314;2023-08-30T00:41:56;12.70;99.90
20319;DHT22;10317;47.254;11.314;2023-08-30T00:44:22;12.70;99.90
20319;DHT22;10317;47.254;11.314;2023-08-30T00:46:48;12.70;99.90
20319;DHT22;10317;47.254;11.314;2023-08-30T00:49:14;12.70;99.90
20319;DHT22;10317;47.254;11.314;2023-08-30T00:51:40;12.70;99.90
20319;DHT22;10317;47.254;11.314;2023-08-30T00:54:06;12.70;99.90
20319;DHT22;10317;47.254;11.314;2023-08-30T00:56:32;12.70;99.90
20319;DHT22;10317;47.254;11.314;2023-08-30T00:58:59;12.70;99.90
20319;DHT22;10317;47.254;11.314;2023-08-30T01:01:26;12.70;99.90
20319;DHT22;10317;47.254;11.314;2023-08-30T01:03:52;12.70;99.90
20319;DHT22;10317;47.254;11.314;2023-08-30T01:06:17;12.70;99.90
20319;DHT22;10317;47.254;11.314;2023-08-30T01:08:43;12.70;99.90
20319;DHT22;10317;47.254;11.314;2023-08-30T01:14:15;12.70;99.90
20319;DHT22;10317;47.254;11.314;2023-08-30T01:16:43;12.70;99.90
20319;DHT22;10317;47.254;11.314;2023-08-30T01:21:56;12.70;99.90
20319;DHT22;10317;47.254;11.314;2023-08-30T01:24:44;12.70;99.90
20319;DHT22;10317;47.254;11.314;2023-08-30T01:27:11;12.70;99.90
20319;DHT22;10317;47.254;11.314;2023-08-30T01:29:40;12.70;99.90
20319;DHT22;10317;47.254;11.314;2023-08-30T01:32:09;12.70;99.90
20319;DHT22;10317;47.254;11.314;2023-08-30T01:34:37;12.80;99.90
20319;DHT22;10317;47.254;11.314;2023-08-30T01:37:06;12.70;99.90
20319;DHT22;10317;47.254;11.314;2023-08-30T01:39:36;12.70;99.90
20319;DHT22;10317;47.254;11.314;2023-08-30T01:42:01;12.70;99.90
20319;DHT22;10317;47.254;11.314;2023-08-30T01:44:28;12.70;99.90
20319;DHT22;10317;47.254;11.314;2023-08-30T01:46:56;12.70;99.90
20319;DHT22;10317;47.254;11.314;2023-08-30T01:49:24;12.70;99.90
20319;DHT22;10317;47.254;11.314;2023-08-30T01:51:51;12.70;99.90
20319;DHT22;10317;47.254;11.314;2023-08-30T01:54:18;12.70;99.90
20319;DHT22;10317;47.254;11.314;2023-08-30T01:56:45;12.70;99.90
20319;DHT22;10317;47.254;11.314;2023-08-30T01:59:10;12.70;99.90
20319;DHT22;10317;47.254;11.314;2023-08-30T02:01:36;12.70;99.90
20319;DHT22;10317;47.254;11.314;2023-08-30T02:04:02;12.70;99.90
20319;DHT22;10317;47.254;11.314;2023-08-30T02:06:49;12.70;99.90
20319;DHT22;10317;47.254;11.314;2023-08-30T02:09:24;12.60;99.90
20319;DHT22;10317;47.254;11.314;2023-08-30T02:11:52;12.60;99.90
20319;DHT22;10317;47.254;11.314;2023-08-30T02:14:20;12.60;99.90
20319;DHT22;10317;47.254;11.314;2023-08-30T02:16:46;12.70;99.90
20319;DHT22;10317;47.254;11.314;2023-08-30T02:19:13;12.60;99.90
20319;DHT22;10317;47.254;11.314;2023-08-30T02:21:48;12.70;99.90
20319;DHT22;10317;47.254;11.314;2023-08-30T02:24:14;12.60;99.90
20319;DHT22;10317;47.254;11.314;2023-08-30T02:26:39;12.60;99.90
20319;DHT22;10317;47.254;11.314;2023-08-30T02:29:05;12.60;99.90
20319;DHT22;10317;47.254;11.314;2023-08-30T02:31:31;12.60;99.90
20319;DHT22;10317;47.254;11.314;2023-08-30T02:33:57;12.60;99.90
20319;DHT22;10317;47.254;11.314;2023-08-30T02:36:22;12.60;99.90
20319;DHT22;10317;47.254;11.314;2023-08-30T02:38:49;12.60;99.90
20319;DHT22;10317;47.254;11.314;2023-08-30T02:41:14;12.60;99.90
20319;DHT22;10317;47.254;11.314;2023-08-30T02:43:40;12.60;99.90
20319;DHT22;10317;47.254;11.314;2023-08-30T02:46:06;12.60;99.90
20319;DHT22;10317;47.254;11.314;2023-08-30T02:48:32;12.60;99.90
20319;DHT22;10317;47.254;11.314;2023-08-30T02:50:59;12.60;99.90
20319;DHT22;10317;47.254;11.314;2023-08-30T02:53:25;12.60;99.90
20319;DHT22;10317;47.254;11.314;2023-08-30T02:55:50;12.50;99.90
20319;DHT22;10317;47.254;11.314;2023-08-30T02:58:16;12.50;99.90
20319;DHT22;10317;47.254;11.314;2023-08-30T03:00:41;12.50;99.90
20319;DHT22;10317;47.254;11.314;2023-08-30T03:03:07;12.50;99.90
20319;DHT22;10317;47.254;11.314;2023-08-30T03:05:33;12.50;99.90
20319;DHT22;10317;47.254;11.314;2023-08-30T03:07:58;12.50;99.90
20319;DHT22;10317;47.254;11.314;2023-08-30T03:10:24;12.50;99.90
20319;DHT22;10317;47.254;11.314;2023-08-30T03:12:50;12.50;99.90
20319;DHT22;10317;47.254;11.314;2023-08-30T03:15:15;12.50;99.90
20319;DHT22;10317;47.254;11.314;2023-08-30T03:17:41;12.50;99.90
20319;DHT22;10317;47.254;11.314;2023-08-30T03:20:07;12.50;99.90
20319;DHT22;10317;47.254;11.314;2023-08-30T03:22:33;12.50;99.90
20319;DHT22;10317;47.254;11.314;2023-08-30T03:24:58;12.50;99.90
20319;DHT22;10317;47.254;11.314;2023-08-30T03:27:24;12.50;99.90
20319;DHT22;10317;47.254;11.314;2023-08-30T03:29:50;12.50;99.90
20319;DHT22;10317;47.254;11.314;2023-08-30T03:32:17;12.50;99.90
20319;DHT22;10317;47.254;11.314;2023-08-30T03:34:47;12.50;99.90
20319;DHT22;10317;47.254;11.314;2023-08-30T03:37:14;12.40;99.90
20319;DHT22;10317;47.254;11.314;2023-08-30T03:39:40;12.40;99.90
20319;DHT22;10317;47.254;11.314;2023-08-30T03:42:06;12.50;99.90
20319;DHT22;10317;47.254;11.314;2023-08-30T03:44:32;12.50;99.90
20319;DHT22;10317;47.254;11.314;2023-08-30T03:46:57;12.50;99.90
20319;DHT22;10317;47.254;11.314;2023-08-30T03:49:23;12.50;99.90
20319;DHT22;10317;47.254;11.314;2023-08-30T03:51:49;12.50;99.90
20319;DHT22;10317;47.254;11.314;2023-08-30T03:54:14;12.50;99.90
20319;DHT22;10317;47.254;11.314;2023-08-30T03:56:42;12.50;99.90
20319;DHT22;10317;47.254;11.314;2023-08-30T03:59:08;12.50;99.90
20319;DHT22;10317;47.254;11.314;2023-08-30T04:01:34;12.50;99.90
20319;DHT22;10317;47.254;11.314;2023-08-30T04:03:59;12.50;99.90
20319;DHT22;10317;47.254;11.314;2023-08-30T04:06:25;12.50;99.90
20319;DHT22;10317;47.254;11.314;2023-08-30T04:08:51;12.50;99.90
20319;DHT22;10317;47.254;11.314;2023-08-30T04:11:16;12.40;99.90
20319;DHT22;10317;47.254;11.314;2023-08-30T04:13:42;12.50;99.90
20319;DHT22;10317;47.254;11.314;2023-08-30T04:16:08;12.50;99.90
20319;DHT22;10317;47.254;11.314;2023-08-30T04:18:33;12.40;99.90
20319;DHT22;10317;47.254;11.314;2023-08-30T04:20:59;12.40;99.90
20319;DHT22;10317;47.254;11.314;2023-08-30T04:23:30;12.40;99.90
20319;DHT22;10317;47.254;11.314;2023-08-30T04:25:55;12.40;99.90
20319;DHT22;10317;47.254;11.314;2023-08-30T04:28:21;12.50;99.90
20319;DHT22;10317;47.254;11.314;2023-08-30T04:30:47;12.40;99.90
20319;DHT22;10317;47.254;11.314;2023-08-30T04:33:13;12.50;99.90
20319;DHT22;10317;47.254;11.314;2023-08-30T04:35:39;12.40;99.90
20319;DHT22;10317;47.254;11.314;2023-08-30T04:38:05;12.50;99.90
20319;DHT22;10317;47.254;11.314;2023-08-30T04:40:31;12.40;99.90
20319;DHT22;10317;47.254;11.314;2023-08-30T04:42:58;12.50;99.90
20319;DHT22;10317;47.254;11.314;2023-08-30T04:45:24;12.40;99.90
20319;DHT22;10317;47.254;11.314;2023-08-30T04:47:50;12.40;99.90
20319;DHT22;10317;47.254;11.314;2023-08-30T04:50:15;12.40;99.90
20319;DHT22;10317;47.254;11.314;2023-08-30T04:52:42;12.40;99.90
20319;DHT22;10317;47.254;11.314;2023-08-30T04:55:09;12.40;99.90
20319;DHT22;10317;47.254;11.314;2023-08-30T04:57:34;12.40;99.90
20319;DHT22;10317;47.254;11.314;2023-08-30T05:00:00;12.40;99.90
20319;DHT22;10317;47.254;11.314;2023-08-30T05:02:30;12.40;99.90
20319;DHT22;10317;47.254;11.314;2023-08-30T05:04:55;12.40;99.90
20319;DHT22;10317;47.254;11.314;2023-08-30T05:07:21;12.40;99.90
20319;DHT22;10317;47.254;11.314;2023-08-30T05:09:46;12.40;99.90
20319;DHT22;10317;47.254;11.314;2023-08-30T05:12:12;12.40;99.90
20319;DHT22;10317;47.254;11.314;2023-08-30T05:14:38;12.40;99.90
20319;DHT22;10317;47.254;11.314;2023-08-30T05:17:04;12.40;99.90
20319;DHT22;10317;47.254;11.314;2023-08-30T05:19:29;12.50;99.90
20319;DHT22;10317;47.254;11.314;2023-08-30T05:21:55;12.50;99.90
20319;DHT22;10317;47.254;11.314;2023-08-30T05:24:21;12.50;99.90
20319;DHT22;10317;47.254;11.314;2023-08-30T05:26:47;12.50;99.90
20319;DHT22;10317;47.254;11.314;2023-08-30T05:29:14;12.60;99.90
20319;DHT22;10317;47.254;11.314;2023-08-30T05:31:41;12.60;99.90
20319;DHT22;10317;47.254;11.314;2023-08-30T05:34:06;12.60;99.90
20319;DHT22;10317;47.254;11.314;2023-08-30T05:36:32;12.60;99.90
20319;DHT22;10317;47.254;11.314;2023-08-30T05:38:58;12.70;99.90
20319;DHT22;10317;47.254;11.314;2023-08-30T05:41:24;12.70;99.90
20319;DHT22;10317;47.254;11.314;2023-08-30T05:43:50;12.70;99.90
20319;DHT22;10317;47.254;11.314;2023-08-30T05:46:16;12.80;99.90
20319;DHT22;10317;47.254;11.314;2023-08-30T05:48:42;12.80;99.90
20319;DHT22;10317;47.254;11.314;2023-08-30T05:51:07;12.90;99.90
20319;DHT22;10317;47.254;11.314;2023-08-30T05:53:33;12.90;99.90
20319;DHT22;10317;47.254;11.314;2023-08-30T05:55:59;12.90;99.90
20319;DHT22;10317;47.254;11.314;2023-08-30T05:58:24;12.90;99.90
20319;DHT22;10317;47.254;11.314;2023-08-30T06:00:50;12.90;99.90
20319;DHT22;10317;47.254;11.314;2023-08-30T06:03:16;13.00;99.90
20319;DHT22;10317;47.254;11.314;2023-08-30T06:05:42;13.00;99.90
20319;DHT22;10317;47.254;11.314;2023-08-30T06:08:08;13.00;99.90
20319;DHT22;10317;47.254;11.314;2023-08-30T06:10:35;13.00;99.90
20319;DHT22;10317;47.254;11.314;2023-08-30T06:13:01;13.10;99.90
20319;DHT22;10317;47.254;11.314;2023-08-30T06:15:28;13.10;99.90
20319;DHT22;10317;47.254;11.314;2023-08-30T06:17:53;13.10;99.90
20319;DHT22;10317;47.254;11.314;2023-08-30T06:20:19;13.10;99.90
20319;DHT22;10317;47.254;11.314;2023-08-30T06:22:45;13.10;99.90
20319;DHT22;10317;47.254;11.314;2023-08-30T06:25:10;13.20;99.90
20319;DHT22;10317;47.254;11.314;2023-08-30T06:27:42;13.20;99.90
20319;DHT22;10317;47.254;11.314;2023-08-30T06:30:11;13.30;99.90
20319;DHT22;10317;47.254;11.314;2023-08-30T06:32:37;13.20;99.90
20319;DHT22;10317;47.254;11.314;2023-08-30T06:35:03;13.30;99.90
20319;DHT22;10317;47.254;11.314;2023-08-30T06:37:29;13.30;99.90
20319;DHT22;10317;47.254;11.314;2023-08-30T06:39:55;13.30;99.90
20319;DHT22;10317;47.254;11.314;2023-08-30T06:42:21;13.40;99.90
20319;DHT22;10317;47.254;11.314;2023-08-30T06:44:46;13.40;99.90
20319;DHT22;10317;47.254;11.314;2023-08-30T06:47:12;13.50;99.90
20319;DHT22;10317;47.254;11.314;2023-08-30T06:49:37;13.50;99.90
20319;DHT22;10317;47.254;11.314;2023-08-30T06:52:03;13.50;99.90
20319;DHT22;10317;47.254;11.314;2023-08-30T06:54:33;13.50;99.90
20319;DHT22;10317;47.254;11.314;2023-08-30T06:57:02;13.50;99.90
20319;DHT22;10317;47.254;11.314;2023-08-30T06:59:28;13.50;99.90
20319;DHT22;10317;47.254;11.314;2023-08-30T07:01:54;13.50;99.90
20319;DHT22;10317;47.254;11.314;2023-08-30T07:04:20;13.60;99.90
20319;DHT22;10317;47.254;11.314;2023-08-30T07:06:45;13.60;99.90
20319;DHT22;10317;47.254;11.314;2023-08-30T07:09:11;13.60;99.90
20319;DHT22;10317;47.254;11.314;2023-08-30T07:11:42;13.70;99.90
20319;DHT22;10317;47.254;11.314;2023-08-30T07:14:09;13.70;99.90
20319;DHT22;10317;47.254;11.314;2023-08-30T07:16:35;13.70;99.90
20319;DHT22;10317;47.254;11.314;2023-08-30T07:19:01;13.80;99.90
20319;DHT22;10317;47.254;11.314;2023-08-30T07:21:27;13.80;99.90
20319;DHT22;10317;47.254;11.314;2023-08-30T07:23:53;13.90;99.90
20319;DHT22;10317;47.254;11.314;2023-08-30T07:26:18;14.00;99.90
20319;DHT22;10317;47.254;11.314;2023-08-30T07:28:45;14.00;99.90
20319;DHT22;10317;47.254;11.314;2023-08-30T07:31:11;14.10;99.90
20319;DHT22;10317;47.254;11.314;2023-08-30T07:33:40;14.10;99.90
20319;DHT22;10317;47.254;11.314;2023-08-30T07:36:07;14.30;99.90
20319;DHT22;10317;47.254;11.314;2023-08-30T07:38:34;14.30;99.90
20319;DHT22;10317;47.254;11.314;2023-08-30T07:41:00;14.50;99.90
20319;DHT22;10317;47.254;11.314;2023-08-30T07:43:26;14.50;99.90
20319;DHT22;10317;47.254;11.314;2023-08-30T07:45:52;14.60;99.90
20319;DHT22;10317;47.254;11.314;2023-08-30T07:48:17;14.60;99.90
20319;DHT22;10317;47.254;11.314;2023-08-30T07:50:43;14.70;99.90
20319;DHT22;10317;47.254;11.314;2023-08-30T07:53:09;14.70;99.90
20319;DHT22;10317;47.254;11.314;2023-08-30T07:55:36;14.70;99.90
20319;DHT22;10317;47.254;11.314;2023-08-30T07:58:01;14.80;99.90
20319;DHT22;10317;47.254;11.314;2023-08-30T08:00:29;14.80;99.90
20319;DHT22;10317;47.254;11.314;2023-08-30T08:02:54;14.90;99.90
20319;DHT22;10317;47.254;11.314;2023-08-30T08:05:20;15.00;99.90
20319;DHT22;10317;47.254;11.314;2023-08-30T08:07:50;15.00;99.90
20319;DHT22;10317;47.254;11.314;2023-08-30T08:10:15;15.00;99.90
20319;DHT22;10317;47.254;11.314;2023-08-30T08:12:41;15.10;99.90
20319;DHT22;10317;47.254;11.314;2023-08-30T08:15:07;15.10;99.90
20319;DHT22;10317;47.254;11.314;2023-08-30T08:17:32;15.10;99.90
20319;DHT22;10317;47.254;11.314;2023-08-30T08:19:58;15.20;99.90
20319;DHT22;10317;47.254;11.314;2023-08-30T08:22:24;15.20;99.90
20319;DHT22;10317;47.254;11.314;2023-08-30T08:24:49;15.30;99.90
20319;DHT22;10317;47.254;11.314;2023-08-30T08:27:17;15.30;99.90
20319;DHT22;10317;47.254;11.314;2023-08-30T08:29:42;15.30;99.90
20319;DHT22;10317;47.254;11.314;2023-08-30T08:32:08;15.30;99.90
20319;DHT22;10317;47.254;11.314;2023-08-30T08:34:34;15.40;99.90
20319;DHT22;10317;47.254;11.314;2023-08-30T08:36:59;15.40;99.90
20319;DHT22;10317;47.254;11.314;2023-08-30T08:39:25;15.40;99.90
20319;DHT22;10317;47.254;11.314;2023-08-30T08:41:51;15.50;99.90
20319;DHT22;10317;47.254;11.314;2023-08-30T08:44:21;15.60;99.90
20319;DHT22;10317;47.254;11.314;2023-08-30T08:46:48;15.60;99.90
20319;DHT22;10317;47.254;11.314;2023-08-30T08:49:15;15.80;99.90
20319;DHT22;10317;47.254;11.314;2023-08-30T08:51:42;16.00;99.90
20319;DHT22;10317;47.254;11.314;2023-08-30T08:54:09;16.30;99.90
20319;DHT22;10317;47.254;11.314;2023-08-30T08:56:36;16.70;99.90
20319;DHT22;10317;47.254;11.314;2023-08-30T08:59:02;17.00;99.90
20319;DHT22;10317;47.254;11.314;2023-08-30T09:01:28;17.40;99.90
20319;DHT22;10317;47.254;11.314;2023-08-30T09:03:54;17.70;99.90
20319;DHT22;10317;47.254;11.314;2023-08-30T09:06:21;18.10;99.90
20319;DHT22;10317;47.254;11.314;2023-08-30T09:08:47;18.40;99.90
20319;DHT22;10317;47.254;11.314;2023-08-30T09:11:13;18.70;99.90
20319;DHT22;10317;47.254;11.314;2023-08-30T09:13:38;18.80;99.90
20319;DHT22;10317;47.254;11.314;2023-08-30T09:16:16;18.80;99.90
20319;DHT22;10317;47.254;11.314;2023-08-30T09:18:42;18.90;99.90
20319;DHT22;10317;47.254;11.314;2023-08-30T09:21:09;19.10;99.90
20319;DHT22;10317;47.254;11.314;2023-08-30T09:23:36;19.20;99.90
20319;DHT22;10317;47.254;11.314;2023-08-30T09:26:02;19.40;99.90
20319;DHT22;10317;47.254;11.314;2023-08-30T09:28:29;19.80;99.90
20319;DHT22;10317;47.254;11.314;2023-08-30T09:30:58;20.20;99.90
20319;DHT22;10317;47.254;11.314;2023-08-30T09:33:32;20.60;99.90
20319;DHT22;10317;47.254;11.314;2023-08-30T09:35:59;20.90;99.90
20319;DHT22;10317;47.254;11.314;2023-08-30T09:38:25;21.20;99.90
20319;DHT22;10317;47.254;11.314;2023-08-30T09:40:52;21.40;99.90
20319;DHT22;10317;47.254;11.314;2023-08-30T09:43:19;21.70;99.60
20319;DHT22;10317;47.254;11.314;2023-08-30T09:45:47;21.70;99.80
20319;DHT22;10317;47.254;11.314;2023-08-30T09:48:13;21.80;99.80
20319;DHT22;10317;47.254;11.314;2023-08-30T09:50:42;21.80;99.10
20319;DHT22;10317;47.254;11.314;2023-08-30T09:53:09;21.80;98.30
20319;DHT22;10317;47.254;11.314;2023-08-30T09:55:35;21.90;97.30
20319;DHT22;10317;47.254;11.314;2023-08-30T09:58:04;21.90;96.10
20319;DHT22;10317;47.254;11.314;2023-08-30T10:00:33;22.00;96.30
20319;DHT22;10317;47.254;11.314;2023-08-30T10:02:59;22.10;95.30
20319;DHT22;10317;47.254;11.314;2023-08-30T10:05:26;22.10;95.30
20319;DHT22;10317;47.254;11.314;2023-08-30T10:07:55;22.30;95.70
20319;DHT22;10317;47.254;11.314;2023-08-30T10:10:22;22.50;93.50
20319;DHT22;10317;47.254;11.314;2023-08-30T10:12:49;22.70;94.20
20319;DHT22;10317;47.254;11.314;2023-08-30T10:15:15;22.80;92.80
20319;DHT22;10317;47.254;11.314;2023-08-30T10:17:44;22.90;92.40
20319;DHT22;10317;47.254;11.314;2023-08-30T10:20:10;23.10;92.20
20319;DHT22;10317;47.254;11.314;2023-08-30T10:22:38;23.20;92.30
20319;DHT22;10317;47.254;11.314;2023-08-30T10:25:19;23.30;91.60
20319;DHT22;10317;47.254;11.314;2023-08-30T10:27:47;23.50;91.10
20319;DHT22;10317;47.254;11.314;2023-08-30T10:30:15;23.60;90.00
20319;DHT22;10317;47.254;11.314;2023-08-30T10:32:42;23.50;89.40
20319;DHT22;10317;47.254;11.314;2023-08-30T10:35:15;23.40;88.70
20319;DHT22;10317;47.254;11.314;2023-08-30T10:37:42;23.50;89.80
20319;DHT22;10317;47.254;11.314;2023-08-30T10:40:09;24.10;88.70
20319;DHT22;10317;47.254;11.314;2023-08-30T10:42:35;24.70;88.50
20319;DHT22;10317;47.254;11.314;2023-08-30T10:45:04;25.30;82.20
20319;DHT22;10317;47.254;11.314;2023-08-30T10:47:31;25.70;82.70
20319;DHT22;10317;47.254;11.314;2023-08-30T10:50:04;26.40;80.10
20319;DHT22;10317;47.254;11.314;2023-08-30T10:52:30;27.30;77.70
20319;DHT22;10317;47.254;11.314;2023-08-30T10:55:13;28.10;76.80
20319;DHT22;10317;47.254;11.314;2023-08-30T10:57:44;29.20;75.70
20319;DHT22;10317;47.254;11.314;2023-08-30T11:00:22;29.70;73.10
20319;DHT22;10317;47.254;11.314;2023-08-30T11:02:51;30.20;69.40
20319;DHT22;10317;47.254;11.314;2023-08-30T11:05:20;30.80;68.40
20319;DHT22;10317;47.254;11.314;2023-08-30T11:07:46;31.00;65.50
20319;DHT22;10317;47.254;11.314;2023-08-30T11:10:14;30.50;64.00
20319;DHT22;10317;47.254;11.314;2023-08-30T11:12:41;29.70;63.60
20319;DHT22;10317;47.254;11.314;2023-08-30T11:15:07;28.80;59.60
20319;DHT22;10317;47.254;11.314;2023-08-30T11:17:34;28.20;62.50
20319;DHT22;10317;47.254;11.314;2023-08-30T11:20:07;28.00;61.00
20319;DHT22;10317;47.254;11.314;2023-08-30T11:22:45;27.50;64.20
20319;DHT22;10317;47.254;11.314;2023-08-30T11:25:12;27.30;63.80
20319;DHT22;10317;47.254;11.314;2023-08-30T11:27:38;27.40;62.10
20319;DHT22;10317;47.254;11.314;2023-08-30T11:30:06;27.70;63.60
20319;DHT22;10317;47.254;11.314;2023-08-30T11:32:36;28.20;63.30
20319;DHT22;10317;47.254;11.314;2023-08-30T11:35:03;28.30;62.30
20319;DHT22;10317;47.254;11.314;2023-08-30T11:37:29;28.40;63.20
20319;DHT22;10317;47.254;11.314;2023-08-30T11:39:56;28.40;61.50
20319;DHT22;10317;47.254;11.314;2023-08-30T11:42:22;28.20;61.20
20319;DHT22;10317;47.254;11.314;2023-08-30T11:44:49;27.90;61.40
20319;DHT22;10317;47.254;11.314;2023-08-30T11:47:19;27.50;62.30
20319;DHT22;10317;47.254;11.314;2023-08-30T11:49:47;27.20;63.90
20319;DHT22;10317;47.254;11.314;2023-08-30T11:52:14;26.80;64.50
20319;DHT22;10317;47.254;11.314;2023-08-30T11:54:40;26.30;65.30
20319;DHT22;10317;47.254;11.314;2023-08-30T11:57:06;25.80;65.10
20319;DHT22;10317;47.254;11.314;2023-08-30T11:59:35;25.50;66.40
20319;DHT22;10317;47.254;11.314;2023-08-30T12:02:01;25.30;67.70
20319;DHT22;10317;47.254;11.314;2023-08-30T12:04:27;25.00;67.60
20319;DHT22;10317;47.254;11.314;2023-08-30T12:06:53;24.80;68.30
20319;DHT22;10317;47.254;11.314;2023-08-30T12:09:19;24.70;69.10
20319;DHT22;10317;47.254;11.314;2023-08-30T12:11:50;24.60;69.50
20319;DHT22;10317;47.254;11.314;2023-08-30T12:14:16;24.70;69.30
20319;DHT22;10317;47.254;11.314;2023-08-30T12:16:42;25.00;70.30
20319;DHT22;10317;47.254;11.314;2023-08-30T12:19:11;25.40;69.00
20319;DHT22;10317;47.254;11.314;2023-08-30T12:21:44;25.70;69.20
20319;DHT22;10317;47.254;11.314;2023-08-30T12:24:10;26.10;69.40
20319;DHT22;10317;47.254;11.314;2023-08-30T12:26:36;26.50;67.80
20319;DHT22;10317;47.254;11.314;2023-08-30T12:29:05;26.90;66.20
20319;DHT22;10317;47.254;11.314;2023-08-30T12:31:32;27.10;65.70
20319;DHT22;10317;47.254;11.314;2023-08-30T12:33:58;27.30;65.80
20319;DHT22;10317;47.254;11.314;2023-08-30T12:36:24;27.60;64.10
20319;DHT22;10317;47.254;11.314;2023-08-30T12:38:50;27.90;64.10
20319;DHT22;10317;47.254;11.314;2023-08-30T12:41:16;28.20;62.60
20319;DHT22;10317;47.254;11.314;2023-08-30T12:43:42;28.20;62.70
20319;DHT22;10317;47.254;11.314;2023-08-30T12:46:07;28.00;62.50
20319;DHT22;10317;47.254;11.314;2023-08-30T12:48:33;27.70;63.10
20319;DHT22;10317;47.254;11.314;2023-08-30T12:50:58;27.30;63.10
20319;DHT22;10317;47.254;11.314;2023-08-30T12:53:24;27.00;63.70
20319;DHT22;10317;47.254;11.314;2023-08-30T12:55:50;26.70;62.90
20319;DHT22;10317;47.254;11.314;2023-08-30T12:58:15;26.30;62.80
20319;DHT22;10317;47.254;11.314;2023-08-30T13:00:41;25.90;64.40
20319;DHT22;10317;47.254;11.314;2023-08-30T13:03:07;25.70;65.60
20319;DHT22;10317;47.254;11.314;2023-08-30T13:05:33;25.50;65.30
20319;DHT22;10317;47.254;11.314;2023-08-30T13:07:59;25.30;66.40
20319;DHT22;10317;47.254;11.314;2023-08-30T13:10:25;25.20;67.70
20319;DHT22;10317;47.254;11.314;2023-08-30T13:12:51;25.00;67.90
20319;DHT22;10317;47.254;11.314;2023-08-30T13:15:17;24.90;67.50
20319;DHT22;10317;47.254;11.314;2023-08-30T13:17:43;24.60;66.20
20319;DHT22;10317;47.254;11.314;2023-08-30T13:20:09;24.40;68.20
20319;DHT22;10317;47.254;11.314;2023-08-30T13:22:35;24.20;68.60
20319;DHT22;10317;47.254;11.314;2023-08-30T13:25:01;24.10;68.90
20319;DHT22;10317;47.254;11.314;2023-08-30T13:27:29;23.90;70.70
20319;DHT22;10317;47.254;11.314;2023-08-30T13:29:55;23.70;70.60
20319;DHT22;10317;47.254;11.314;2023-08-30T13:32:20;23.60;71.50
20319;DHT22;10317;47.254;11.314;2023-08-30T13:34:46;23.40;71.40
20319;DHT22;10317;47.254;11.314;2023-08-30T13:37:13;23.30;72.30
20319;DHT22;10317;47.254;11.314;2023-08-30T13:39:39;23.20;72.40
20319;DHT22;10317;47.254;11.314;2023-08-30T13:42:05;23.10;72.50
20319;DHT22;10317;47.254;11.314;2023-08-30T13:44:31;22.90;73.60
20319;DHT22;10317;47.254;11.314;2023-08-30T13:46:57;22.70;74.00
20319;DHT22;10317;47.254;11.314;2023-08-30T13:49:23;22.60;74.00
20319;DHT22;10317;47.254;11.314;2023-08-30T13:51:49;22.50;73.90
20319;DHT22;10317;47.254;11.314;2023-08-30T13:54:14;22.30;74.80
20319;DHT22;10317;47.254;11.314;2023-08-30T13:56:40;22.20;73.40
20319;DHT22;10317;47.254;11.314;2023-08-30T13:59:08;22.00;74.50
20319;DHT22;10317;47.254;11.314;2023-08-30T14:01:34;22.00;75.10
20319;DHT22;10317;47.254;11.314;2023-08-30T14:04:02;21.90;75.70
20319;DHT22;10317;47.254;11.314;2023-08-30T14:06:30;21.70;76.20
20319;DHT22;10317;47.254;11.314;2023-08-30T14:08:56;21.60;76.10
20319;DHT22;10317;47.254;11.314;2023-08-30T14:11:22;21.60;77.10
20319;DHT22;10317;47.254;11.314;2023-08-30T14:13:48;21.50;77.10
20319;DHT22;10317;47.254;11.314;2023-08-30T14:16:13;21.40;76.90
20319;DHT22;10317;47.254;11.314;2023-08-30T14:18:39;21.40;77.00
20319;DHT22;10317;47.254;11.314;2023-08-30T14:21:05;21.30;77.10
20319;DHT22;10317;47.254;11.314;2023-08-30T14:23:31;21.20;78.00
20319;DHT22;10317;47.254;11.314;2023-08-30T14:26:02;21.20;78.00
20319;DHT22;10317;47.254;11.314;2023-08-30T14:28:40;21.10;79.10
20319;DHT22;10317;47.254;11.314;2023-08-30T14:31:08;21.10;78.40
20319;DHT22;10317;47.254;11.314;2023-08-30T14:33:34;21.00;79.00
20319;DHT22;10317;47.254;11.314;2023-08-30T14:35:59;21.00;79.00
20319;DHT22;10317;47.254;11.314;2023-08-30T14:38:28;21.00;79.30
20319;DHT22;10317;47.254;11.314;2023-08-30T14:40:57;21.00;78.90
20319;DHT22;10317;47.254;11.314;2023-08-30T14:43:23;20.90;79.80
20319;DHT22;10317;47.254;11.314;2023-08-30T14:45:49;20.90;79.20
20319;DHT22;10317;47.254;11.314;2023-08-30T14:48:14;20.80;79.60
20319;DHT22;10317;47.254;11.314;2023-08-30T14:50:40;20.70;81.00
20319;DHT22;10317;47.254;11.314;2023-08-30T14:53:06;20.60;80.50
20319;DHT22;10317;47.254;11.314;2023-08-30T14:55:32;20.50;80.70
20319;DHT22;10317;47.254;11.314;2023-08-30T14:57:58;20.40;81.40
20319;DHT22;10317;47.254;11.314;2023-08-30T15:00:24;20.40;81.90
20319;DHT22;10317;47.254;11.314;2023-08-30T15:02:49;20.30;83.10
20319;DHT22;10317;47.254;11.314;2023-08-30T15:05:15;20.10;83.80
20319;DHT22;10317;47.254;11.314;2023-08-30T15:07:41;20.00;85.10
20319;DHT22;10317;47.254;11.314;2023-08-30T15:10:07;19.90;86.50
20319;DHT22;10317;47.254;11.314;2023-08-30T15:12:33;19.80;86.90
20319;DHT22;10317;47.254;11.314;2023-08-30T15:14:58;19.60;87.70
20319;DHT22;10317;47.254;11.314;2023-08-30T15:17:24;19.60;89.30